Airfield :
LOGIN :

Register | Disclaimer

   EN    FR    IT 

 










Legend :    VFR   Marginal VFR   IFR   Intensive IFR   Very Intensive IFR
Visi :
Ceiling :
>= 8 km
>= 3000ft
5 to 8 km
1000 to 3000 ft
1500m to 5 km
500 to 1000 ft
800 to 1500m
200 to 500 ft
< 800m
< 200 ft
Symbols :   Thunderstorms  Fog  Heavy snow  Heavy precipitations  Wind > 20 kt
SIGMETs :     Misc.  Thunderstorms  Icing  Turbulence  Mountain Waves  Volcanic Ashes







- Airport Elevation : 32 ft
- IATA code : LKZ


EGUL - RAF Lakenheath

CURRENT METAR :
  • 162256Z AUTO 27007KT 9999 CLR 20/13 A2988 RMK AO2 SLP121 T01970127 $

EXPIRED METARs :
  • 162156Z AUTO 24007KT 9999 SCT070 BKN090 21/11 A2986 RMK AO2 SLP114 T02140111 $
  • 162056Z AUTO 07003KT 9999 FEW100 20/11 A2985 RMK AO2 SLP111 T02020106 52005 $

TAF TAF EGUL
Valid from the 16 at 20:00 until the 18 at 02:00 UTC


162012Z 1620/1802 25009KT 9999 FEW040 BKN060 QNH2984INS
BECMG 1623/1624 26010G15KT 9999 FEW020 BKN060 QNH2988INS
BECMG 1702/1703 26010G15KT 9999 BKN015 QNH2990INS
TEMPO 1702/1705 BKN010
BECMG 1707/1708 27012KT 9999 SCT025 QNH2994INS TX28/1715Z TN13/1705Z
No reported NOTAMs for that airfield.
1 SIGMET reported for the London FIR (EGTT) :
 
Embedded thunderstorms
EGTT SIGMET 07 VALID 162300/170200 EGRR
EGTT LONDON FIR EMBD TS FCST WI N5500 W00038 - N5413 E00006 - N5348 E00017 - N5351 W00022 - N5500 W00210 - N5500 W00038 TOP FL300 MOV NE 10KT NC=



MET'MAP, your aeronautical weather chart ! - Copyright ORBIFLY December 2007 - Disclaimer

ORBIFLY MET'MAP TEAM :

Programming & Development : Alexandra Zaïnal
Concept & Development : Baudouin d'Aumeries
Co-Development & Prog : Marc-Olivier Méhu
Technical & hardware support : Manuel Goepfert

Contact : metmap@orbifly.com




SOURCES & CREDITS :

   NOAA